Etusivu
METAR-TAF:

METAR-TAF

Lentoasemat :

Castellón de la Plana, Espanja

Leveyspiiri: 40-12-35N, Pituuspiiri: 0-04-11E, korkeus merenpinnasta: 360 m

Tämänhetkinen sää

Tämä raportti tehtiin 32 minuuttia sitten, kello 05.00 UTC
Tuuli 5 kn pohjoisesta/koillisesta, vaihdellen pohjoisen ja idän/koillisen välillä
Lämpötila 18°C
Kosteus 88%
Ilmanpaine 1015 hPa
Näkyvyys: 4400 m
Pilvistä 1100 ft:n korkeudessa
utua,

METAR: LECH 160500Z AUTO 03005KT 350V060 4400 BR OVC011 18/16 Q1015

Aika: 07:32 (05:32 UTC)


TAF: puuttuu

Säähavainnot ja -ennusteet yli 4000 lentoasemalta (METAR- ja TAF-raportit).

Käytössä olevat sääasemat on merkitty karttaan keltaisilla ja punaisilla pisteillä.

Aseta hiiri pisteen päälle nähdäksesi sääaseman nimen.

Klikkaa sitten nähdäksesi säähavainnot ja -ennusteet.

Kartan vaihtaminen: klikkaa mustalla rastilla varustettuja vihreitä pisteitä, niin voit zoomata sisään; viivalla varustettua vihreää pistettä, niin voit zoomata ulos tai vihreitä nuolia, niin pääset viereisille kartoille.


METAR-TAF: